Flight Track Log - Related Links

Times and Time Zones

All times are in EST time to prevent confusion due to time zone crossing. See the UPS213 flight status page for this flight to view local times or setup timezone preferences in your user account.

Time Position Orientation Groundspeed Altitude Reporting Facility
EST Latitude Longitude Course Direction KTS MPH feet Rate Location/Type
Wed 05:02:59 AM 38.1690 -85.7430 270° West 165 190  Level FlightAware
Wed 05:03:30 AM 38.1400 -85.7330 165° South 193 222 1,100 1,619 Climbing FlightAware
Wed 05:04:02 AM 38.1090 -85.7230 166° South 240 276 1,700 1,355 Climbing FlightAware
Wed 05:04:32 AM 38.0740 -85.7110 165° South 270 311 2,500 2,182 Climbing FlightAware
Wed 05:05:08 AM 38.0420 -85.6740 138° Southeast 281 323 4,100 2,842 Climbing FlightAware
Wed 05:05:48 AM 38.0330 -85.6090 100° East 284 327 6,100 2,750 Climbing FlightAware
Wed 05:06:20 AM 38.0300 -85.5550 94° East 295 339 7,400 2,432 Climbing FlightAware
Wed 05:07:02 AM 38.0250 -85.4800 95° East 308 354 9,100 2,154 Climbing FlightAware
Wed 05:07:38 AM 38.0330 -85.4180 81° East 309 356 10,200 1,816 Climbing FlightAware
Wed 05:08:18 AM 38.0590 -85.3500 64° Northeast 335 386 11,400 1,429 Climbing FlightAware
Wed 05:09:02 AM 38.0900 -85.2660 65° Northeast 375 432 12,200 1,342 Climbing FlightAware
Wed 05:09:34 AM 38.1140 -85.1990 66° East 392 451 13,100 2,118 Climbing FlightAware
Wed 05:10:10 AM 38.1410 -85.1230 66° East 396 456 14,600 2,175 Climbing FlightAware
Wed 05:10:54 AM 38.1750 -85.0300 65° Northeast 408 470 16,000 1,929 Climbing FlightAware
Wed 05:11:34 AM 38.2070 -84.9420 65° Northeast 417 480 17,300 1,857 Climbing FlightAware
Wed 05:12:18 AM 38.2430 -84.8430 65° Northeast 430 495 18,600 1,737 Climbing FlightAware
Wed 05:12:50 AM 38.2690 -84.7694 66° East 436 502 19,500 1,890 Climbing FlightAware (KCVG)
Wed 05:13:31 AM 38.3017 -84.6781 65° Northeast 439 505 20,900 1,784 Climbing FlightAware (KCVG)
Wed 05:14:41 AM 38.3617 -84.5099 65° Northeast 448 516 22,800 1,617 Climbing FlightAware (KCVG)
Wed 05:15:26 AM 38.4010 -84.3990 66° East 452 520 24,000 1,400 Climbing FlightAware
Wed 05:16:11 AM 38.4380 -84.2930 66° East 459 528 24,900 1,241 Climbing FlightAware
Wed 05:16:53 AM 38.4770 -84.1840 65° Northeast 467 537 25,800 1,308 Climbing FlightAware
Wed 05:17:29 AM 38.5100 -84.0910 66° East 471 542 26,600 1,357 Climbing FlightAware
Wed 05:18:17 AM 38.5520 -83.9690 66° East 473 544 27,700 1,705 Climbing FlightAware
Wed 05:18:57 AM 38.5880 -83.8680 65° Northeast 463 533 29,100 1,875 Climbing FlightAware
Wed 05:19:37 AM 38.6220 -83.7690 66° East 456 525 30,200 1,286 Climbing FlightAware
Wed 05:20:21 AM 38.6600 -83.6590 66° East 460 529 30,900 1,041 Climbing FlightAware
Wed 05:21:15 AM 38.7060 -83.5270 66° East 459 528 31,900 1,041 Climbing FlightAware
Wed 05:21:59 AM 38.7440 -83.4160 66° East 461 531 32,600 667 Climbing FlightAware
Wed 05:22:27 AM 38.7680 -83.3460 66° East 467 537 32,700 250 Climbing FlightAware
Wed 05:23:35 AM 38.8260 -83.1750 66° East 472 543 33,000 176 Climbing FlightAware
Wed 05:24:09 AM 38.8550 -83.0880 67° East 470 541 33,000  Level FlightAware
Wed 05:24:47 AM 38.8880 -82.9920 66° East 468 539 33,000  Level FlightAware
Wed 05:25:20 AM 38.9150 -82.9120 67° East 469 540 33,000  Level FlightAware
Wed 05:26:28 AM 38.9750 -82.7310 67° East 467 537 33,000  Level FlightAware
Wed 05:27:10 AM 39.0110 -82.6250 66° East 469 540 33,000  Level FlightAware
Wed 05:28:04 AM 39.0570 -82.4850 67° East 471 542 33,000  Level FlightAware
Wed 05:28:48 AM 39.0950 -82.3720 67° East 471 542 33,000  Level FlightAware
Wed 05:29:28 AM 39.1290 -82.2680 67° East 473 544 33,000  Level FlightAware
Wed 05:30:09 AM 39.1630 -82.1660 67° East 474 545 33,000  Level FlightAware
Wed 05:30:50 AM 39.1990 -82.0540 67° East 473 544 33,000  Level FlightAware
Wed 05:31:34 AM 39.2370 -81.9400 67° East 475 547 33,000  Level FlightAware
Wed 05:32:13 AM 39.2680 -81.8410 68° East 475 547 33,000  Level FlightAware
Wed 05:33:15 AM 39.3220 -81.6770 67° East 476 548 33,000  Level FlightAware
Wed 05:33:45 AM 39.3470 -81.5970 68° East 476 548 33,000  Level FlightAware
Wed 05:34:51 AM 39.4020 -81.4260 67° East 478 550 33,000  Level FlightAware
Wed 05:35:32 AM 39.4350 -81.3220 68° East 476 548 33,000  Level FlightAware
Wed 05:36:09 AM 39.4670 -81.2230 67° East 476 548 33,000  Level FlightAware
Wed 05:36:47 AM 39.4980 -81.1230 68° East 476 548 33,000  Level FlightAware
Wed 05:37:22 AM 39.5280 -81.0290 67° East 475 547 33,000  Level FlightAware
Wed 05:38:03 AM 39.5620 -80.9220 68° East 476 548 33,000  Level FlightAware
Wed 05:38:39 AM 39.5920 -80.8260 68° East 476 548 33,000  Level FlightAware
Wed 05:39:11 AM 39.6170 -80.7440 68° East 476 548 33,000  Level FlightAware
Wed 05:39:51 AM 39.6450 -80.6530 68° East 476 548 33,000  Level FlightAware
Wed 05:40:39 AM 39.6790 -80.5450 68° East 476 548 33,000  Level FlightAware
Wed 05:41:22 AM 39.7250 -80.3960 68° East 474 545 33,000  Level FlightAware
Wed 05:42:01 AM 39.7570 -80.2900 69° East 473 544 33,000  Level FlightAware
Wed 05:42:41 AM 39.7890 -80.1870 68° East 472 543 33,000  Level FlightAware
Wed 05:43:42 AM 39.8380 -80.0250 68° East 472 543 33,000  Level FlightAware
Wed 05:44:10 AM 39.8600 -79.9510 69° East 471 542 33,000  Level FlightAware
Wed 05:44:50 AM 39.8920 -79.8470 68° East 472 543 33,000  Level FlightAware
Wed 05:45:26 AM 39.9210 -79.7510 68° East 473 544 33,000  Level FlightAware
Wed 05:46:02 AM 39.9500 -79.6540 69° East 473 544 33,000  Level FlightAware
Wed 05:46:40 AM 39.9800 -79.5540 69° East 472 543 33,000  Level FlightAware
Wed 05:47:22 AM 40.0120 -79.4460 69° East 472 543 33,000  Level FlightAware
Wed 05:47:58 AM 40.0410 -79.3470 69° East 472 543 33,000  Level FlightAware
Wed 05:48:39 AM 40.0730 -79.2390 69° East 473 544 33,000  Level FlightAware
Wed 05:49:17 AM 40.1040 -79.1360 68° East 474 545 33,000  Level FlightAware
Wed 05:49:37 AM 40.1185 -79.0851 70° East 475 547 33,000  Level FlightAware (KWWD)
Wed 05:50:23 AM 40.1550 -78.9600 69° East 474 545 33,000  Level FlightAware
Wed 05:50:59 AM 40.1830 -78.8650 69° East 476 548 33,000  Level FlightAware
Wed 05:51:36 AM 40.2120 -78.7650 69° East 476 548 33,000  Level FlightAware
Wed 05:52:08 AM 40.2370 -78.6780 69° East 476 548 33,000  Level FlightAware
Wed 05:52:49 AM 40.2680 -78.5680 70° East 476 548 33,000  Level FlightAware
Wed 05:53:34 AM 40.3030 -78.4460 69° East 474 545 33,000  Level FlightAware
Wed 05:54:14 AM 40.3330 -78.3400 70° East 471 542 33,000  Level FlightAware
Wed 05:55:12 AM 40.3774 -78.1849 69° East 465 535 33,000  Level FlightAware (KWWD)
Wed 05:55:51 AM 40.4065 -78.0815 70° East 457 526 33,000  Level FlightAware (KWWD)
Wed 05:56:22 AM 40.4293 -78.0009 70° East 457 526 33,000  Level FlightAware (KWWD)
Wed 05:56:53 AM 40.4513 -77.9228 70° East 453 521 33,000  Level FlightAware (KWWD)
Wed 05:57:23 AM 40.4734 -77.8441 70° East 451 519 33,000  Level FlightAware (KWWD)
Wed 05:57:53 AM 40.4945 -77.7678 70° East 450 518 33,000  Level FlightAware (KWWD)
Wed 05:58:23 AM 40.5161 -77.6899 70° East 451 519 33,000  Level FlightAware (KWWD)
Wed 05:59:06 AM 40.5469 -77.5790 70° East 453 521 33,000  Level FlightAware (KWWD)
Wed 05:59:56 AM 40.5820 -77.4510 70° East 458 527 33,000  Level FlightAware
Wed 06:00:41 AM 40.6150 -77.3300 70° East 455 524 33,000  Level FlightAware
Wed 06:01:53 AM 40.6664 -77.1432 70° East 452 520 33,000  Level FlightAware (KWWD)
Wed 06:02:33 AM 40.6946 -77.0391 70° East 457 526 33,000  Level FlightAware (KWWD)
Wed 06:03:13 AM 40.7232 -76.9329 70° East 461 531 33,000  Level FlightAware (KWWD)
Wed 06:03:31 AM 40.7357 -76.8860 71° East 464 534 33,000  Level FlightAware
Wed 06:03:43 AM 40.7357 -76.8860 71° East 465 535 33,000  Level FlightAware
Wed 06:03:51 AM 40.7503 -76.8310 71° East 465 535 33,000  Level FlightAware
Wed 06:04:33 AM 40.7800 -76.7196 71° East 461 531 33,000  Level FlightAware (KWWD)
Wed 06:05:03 AM 40.8015 -76.6396 70° East 462 532 33,000  Level FlightAware (KWWD)
Wed 06:05:33 AM 40.8226 -76.5601 71° East 460 529 33,000  Level FlightAware (KWWD)
Wed 06:06:13 AM 40.8507 -76.4540 71° East 461 531 33,000  Level FlightAware (KWWD)
Wed 06:06:52 AM 40.8785 -76.3483 71° East 458 527 33,000  Level FlightAware (KWWD)
Wed 06:07:44 AM 40.9141 -76.2125 71° East 455 524 33,000  Level FlightAware (KWWD)
Wed 06:08:19 AM 40.9381 -76.1207 71° East 454 522 33,000  Level FlightAware (KWWD)
Wed 06:09:06 AM 40.9702 -75.9975 71° East 458 527 33,000  Level FlightAware (KWWD)
Wed 06:09:40 AM 40.9931 -75.9085 71° East 459 528 33,000  Level FlightAware (KWWD)
Wed 06:10:34 AM 41.0310 -75.7619 71° East 467 537 33,000 65 Level FlightAware (KWWD)
Wed 06:11:13 AM 41.0582 -75.6549 71° East 475 547 33,100  Climbing FlightAware (KWWD)
Wed 06:11:44 AM 41.0798 -75.5701 71° East 476 548 33,000 -83 Descending FlightAware (KWWD)
Wed 06:12:25 AM 41.1085 -75.4572 71° East 478 550 33,000  Level FlightAware (KWWD)
Wed 06:13:01 AM 41.1338 -75.3573 71° East 476 548 33,000  Level FlightAware (KWWD)
Wed 06:13:32 AM 41.1556 -75.2708 71° East 476 548 33,000  Level FlightAware (KWWD)
Wed 06:14:03 AM 41.1777 -75.1831 71° East 477 549 33,000  Level FlightAware (KWWD)
Wed 06:14:33 AM 41.1982 -75.1005 72° East 480 552 33,000  Level FlightAware (KWWD)
Wed 06:15:12 AM 41.2255 -74.9904 72° East 482 555 33,000  Level FlightAware (KWWD)
Wed 06:15:44 AM 41.2477 -74.9013 72° East 482 555 33,000  Level FlightAware (KWWD)
Wed 06:16:15 AM 41.2690 -74.8145 72° East 487 560 33,000 85 Level FlightAware (KWWD)
Wed 06:16:55 AM 41.2973 -74.6987 72° East 486 559 33,100 76 Climbing FlightAware (KWWD)
Wed 06:17:34 AM 41.3244 -74.5891 72° East 488 562 33,100 -95 Level FlightAware (KWWD)
Wed 06:17:58 AM 41.3408 -74.5216 72° East 486 559 33,000 -103 Descending FlightAware (KWWD)
Wed 06:18:32 AM 41.3648 -74.4227 72° East 492 566 33,000  Level FlightAware (KWWD)
Wed 06:19:04 AM 41.3864 -74.3338 72° East 494 568 33,000  Level FlightAware (KSNC)
Wed 06:19:17 AM 41.3960 -74.2941 72° East 495 570 33,000 120 Level FlightAware
Wed 06:19:54 AM 41.4218 -74.1864 72° East 497 572 33,100  Climbing FlightAware (KSNC)
Wed 06:20:02 AM 41.4273 -74.1636 72° East 497 572 33,000 -200 Descending FlightAware
Wed 06:20:24 AM 41.4425 -74.1003 72° East 494 568 33,000  Level FlightAware (KSNC)
Wed 06:20:56 AM 41.4636 -74.0122 72° East 495 570 33,000  Level FlightAware (KSNC)
Wed 06:21:26 AM 41.4857 -73.9189 72° East 497 572 33,000  Level FlightAware (KSNC)
Wed 06:21:57 AM 41.5070 -73.8281 73° East 495 570 33,000  Level FlightAware (KSNC)
Wed 06:22:36 AM 41.5337 -73.7156 72° East 496 571 33,000  Level FlightAware (KSNC)
Wed 06:23:06 AM 41.5530 -73.6327 73° East 495 570 33,000 -87 Level FlightAware (KSNC)
Wed 06:23:45 AM 41.5811 -73.5132 73° East 496 571 32,900  Descending FlightAware (KSNC)
Wed 06:24:16 AM 41.6014 -73.4261 73° East 498 573 33,000 97 Climbing FlightAware (KSNC)
Wed 06:24:47 AM 41.6225 -73.3342 73° East 501 577 33,000  Level FlightAware (KSNC)
Wed 06:25:28 AM 41.6502 -73.2141 73° East 505 581 33,000  Level FlightAware (KSNC)
Wed 06:25:58 AM 41.6713 -73.1220 73° East 508 585 33,000  Level FlightAware (KSNC)
Wed 06:26:37 AM 41.6958 -73.0143 73° East 510 587 33,000  Level FlightAware (KSNC)
Wed 06:27:08 AM 41.7185 -72.9149 73° East 509 586 33,000  Level FlightAware (KSNC)
Wed 06:27:38 AM 41.7397 -72.8213 73° East 508 585 33,000  Level FlightAware (KSNC)
Wed 06:28:08 AM 41.7594 -72.7332 73° East 507 583 33,000  Level FlightAware (KSNC)
Wed 06:28:39 AM 41.7806 -72.6382 73° East 506 582 33,000  Level FlightAware (KSNC)
Wed 06:29:09 AM 41.8010 -72.5510 73° East 505 581 33,000  Level FlightAware
Wed 06:29:58 AM 41.8465 -72.4189 65° Northeast 504 580 33,000  Level FlightAware (KSNC)
Wed 06:30:34 AM 41.8847 -72.3089 65° Northeast 504 580 33,000  Level FlightAware (KSNC)
Wed 06:31:04 AM 41.9144 -72.2239 65° Northeast 505 581 33,000  Level FlightAware (KSNC)
Wed 06:31:43 AM 41.9525 -72.1135 65° Northeast 507 583 33,000  Level FlightAware
Wed 06:32:19 AM 41.9882 -72.0099 65° Northeast 508 585 33,000  Level FlightAware
Wed 06:32:51 AM 42.0177 -71.9244 65° Northeast 511 588 33,000  Level FlightAware (KSNC)
Wed 06:33:24 AM 42.0525 -71.8232 65° Northeast 514 592 33,000 143 Level FlightAware (SBBR / BSB)
Wed 06:33:33 AM 42.0604 -71.7999 66° East 514 592 33,100  Climbing FlightAware (KOWD)
Wed 06:34:05 AM 42.0917 -71.7080 65° Northeast 516 594 33,000 -105 Descending FlightAware (SBBR / BSB)
Wed 06:34:30 AM 42.1136 -71.6438 65° Northeast 517 595 33,000  Level FlightAware (KSNC)
Wed 06:34:48 AM 42.1361 -71.5779 65° Northeast 515 593 33,000  Level FlightAware
Wed 06:35:08 AM 42.1557 -71.5201 65° Northeast 516 594 33,000  Level FlightAware
Wed 06:35:39 AM 42.1865 -71.4296 65° Northeast 515 593 33,000  Level FlightAware
Wed 06:36:09 AM 42.2163 -71.3409 66° East 517 595 33,000  Level FlightAware (EPKK / KRK)
Wed 06:36:41 AM 42.2476 -71.2477 66° East 516 594 33,000  Level FlightAware
Wed 06:37:11 AM 42.2771 -71.1594 66° East 516 594 33,000  Level FlightAware
Wed 06:37:48 AM 42.3134 -71.0508 66° East 516 594 33,000  Level FlightAware (EPKK / KRK)
Wed 06:38:19 AM 42.3432 -70.9618 66° East 516 594 33,000 -97 Level FlightAware (EPKK / KRK)
Wed 06:38:50 AM 42.3731 -70.8713 66° East 516 594 32,900 -98 Descending FlightAware (EPKK / KRK)
Wed 06:39:20 AM 42.3935 -70.8094 66° East 516 594 32,900 100 Level FlightAware (KOWD)
Wed 06:39:50 AM 42.4321 -70.6927 66° East 518 596 33,000 98 Climbing FlightAware (EPKK / KRK)
Wed 06:40:21 AM 42.4620 -70.6014 66° East 519 597 33,000  Level FlightAware
Wed 06:40:51 AM 42.4580 -70.6134 246° West 520 598 33,000  Level FlightAware (KOWD)
Wed 06:41:29 AM 42.5275 -70.4005 66° East 525 604 33,000 85 Level FlightAware (SBBR / BSB)
Wed 06:42:02 AM 42.5592 -70.3030 66° East 527 606 33,100  Climbing FlightAware (EPKK / KRK)
Wed 06:42:40 AM 42.5978 -70.1832 66° East 530 610 33,000 -85 Descending FlightAware
Wed 06:43:13 AM 42.6288 -70.0870 66° East 531 611 33,000  Level FlightAware (EPKK / KRK)
Wed 06:43:47 AM 42.6633 -69.9795 66° East 530 610 33,000  Level FlightAware (EPKK / KRK)
Wed 06:44:17 AM 42.6924 -69.8886 66° East 529 609 33,000  Level FlightAware (EPKK / KRK)
Wed 06:44:50 AM 42.7245 -69.7877 67° East 525 604 33,000  Level FlightAware
Wed 06:45:23 AM 42.7555 -69.6904 67° East 523 602 33,000 -102 Level FlightAware (EPKK / KRK)
Wed 06:45:49 AM 42.7808 -69.6104 67° East 518 596 32,900  Descending FlightAware
Wed 06:46:24 AM 42.8120 -69.5115 67° East 520 598 33,000 143 Climbing FlightAware (EPKK / KRK)
Wed 06:46:31 AM 42.8208 -69.4834 67° East 516 594 33,000  Level FlightAware
Wed 06:46:51 AM 42.8397 -69.4233 67° East 517 595 33,000  Level FlightAware
Wed 06:47:23 AM 42.8658 -69.3398 67° East 523 602 33,000  Level FlightAware
Wed 06:47:36 AM 42.8811 -69.2903 67° East 523 602 33,000  Level FlightAware
Wed 06:47:47 AM 42.8914 -69.2570 67° East 525 604 33,000  Level FlightAware
Wed 06:48:21 AM 42.9247 -69.1502 67° East 524 603 33,000  Level FlightAware
Wed 06:48:51 AM 42.9529 -69.0590 67° East 525 604 33,000  Level FlightAware
Wed 06:49:21 AM 42.9808 -68.9688 67° East 526 605 33,000  Level FlightAware
Wed 06:49:34 AM 42.9926 -68.9301 67° East 530 610 33,000  Level FlightAware
Wed 06:50:07 AM 43.0240 -68.8279 67° East 532 612 33,000  Level FlightAware (EPKK / KRK)
Wed 06:50:11 AM 43.0279 -68.8152 67° East 529 609 33,000  Level FlightAware
Wed 06:50:43 AM 43.0580 -68.7170 67° East 533 613 33,000  Level FlightAware
Wed 06:50:46 AM 43.0611 -68.7067 67° East 532 612 33,000  Level FlightAware
Wed 06:50:54 AM 43.0696 -68.6791 67° East 529 609 33,000  Level FlightAware
Wed 06:51:18 AM 43.0918 -68.6059 67° East 528 608 33,000  Level FlightAware
Wed 06:51:51 AM 43.1231 -68.5030 67° East 527 606 33,000  Level FlightAware
Wed 06:52:24 AM 43.1535 -68.4025 67° East 530 610 33,000 -95 Level FlightAware (EPKK / KRK)
Wed 06:52:54 AM 43.1657 -68.3622 67° East 531 611 32,900  Descending FlightAware
Wed 06:53:26 AM 43.2083 -68.2195 68° East 530 610 33,000 97 Climbing FlightAware
Wed 06:53:56 AM 43.2378 -68.1212 68° East 531 611 33,000  Level FlightAware
Wed 06:54:26 AM 43.2644 -68.0319 68° East 532 612 33,000  Level FlightAware
Wed 06:55:05 AM 43.3026 -67.9025 68° East 536 617 33,000  Level FlightAware
Wed 06:55:39 AM 43.3345 -67.7944 68° East 538 619 33,000  Level FlightAware
Wed 06:56:12 AM 43.3589 -67.7114 68° East 541 623 33,000  Level FlightAware
Wed 06:56:45 AM 43.3952 -67.5871 68° East 541 623 33,000  Level FlightAware
Wed 06:57:17 AM 43.4228 -67.4921 68° East 542 624 33,000  Level FlightAware
Wed 06:57:47 AM 43.4519 -67.3919 68° East 541 623 33,000  Level FlightAware
Wed 06:58:38 AM 43.5002 -67.2252 68° East 541 623 33,000  Level FlightAware
Wed 06:59:08 AM 43.5283 -67.1275 68° East 539 620 33,000  Level FlightAware
Wed 06:59:39 AM 43.5559 -67.0310 68° East 538 619 33,000  Level FlightAware
Wed 07:00:19 AM 43.5980 -66.9172 63° Northeast 540 621 33,000  Level FlightAware
Wed 07:00:50 AM 43.6387 -66.8155 61° Northeast 541 623 33,000  Level FlightAware
Wed 07:01:20 AM 43.6712 -66.7338 61° Northeast 542 624 33,000  Level FlightAware
Wed 07:01:51 AM 43.7113 -66.6329 61° Northeast 544 626 33,000  Level FlightAware
Wed 07:02:21 AM 43.7451 -66.5544 59° Northeast 548 631 33,000  Level FlightAware
Wed 07:03:15 AM 43.8306 -66.3855 55° Northeast 551 634 33,000  Level FlightAware
Wed 07:03:50 AM 43.8808 -66.2843 55° Northeast 554 638 33,000  Level FlightAware
Wed 07:04:31 AM 43.9403 -66.1652 55° Northeast 555 639 33,000  Level FlightAware
Wed 07:05:01 AM 43.9842 -66.0776 55° Northeast 553 636 33,000  Level FlightAware
Wed 07:05:52 AM 44.0585 -65.9290 55° Northeast 551 634 33,000  Level FlightAware
Wed 07:06:22 AM 44.1013 -65.8431 55° Northeast 550 633 33,000 -100 Level FlightAware
Wed 07:06:52 AM 44.1454 -65.7541 55° Northeast 549 632 32,900  Descending FlightAware
Wed 07:07:22 AM 44.1873 -65.6693 55° Northeast 548 631 33,000 98 Climbing FlightAware
Wed 07:07:53 AM 44.2326 -65.5775 55° Northeast 548 631 33,000  Level FlightAware
Wed 07:08:24 AM 44.2762 -65.4887 56° Northeast 548 631 33,000  Level FlightAware
Wed 07:08:55 AM 44.3207 -65.3979 56° Northeast 551 634 33,000  Level FlightAware
Wed 07:09:35 AM 44.3713 -65.2944 56° Northeast 554 638 33,000  Level FlightAware
Wed 07:10:10 AM 44.4288 -65.1760 56° Northeast 557 641 33,000  Level FlightAware
Wed 07:10:40 AM 44.4646 -65.1024 56° Northeast 559 643 33,000  Level FlightAware
Wed 07:11:14 AM 44.5202 -64.9875 56° Northeast 560 644 33,000  Level FlightAware
Wed 07:11:45 AM 44.5659 -64.8923 56° Northeast 559 643 33,000  Level FlightAware
Wed 07:12:15 AM 44.6088 -64.8027 56° Northeast 558 642 33,000  Level FlightAware
Wed 07:12:45 AM 44.6503 -64.7162 56° Northeast 556 640 33,000  Level FlightAware
Wed 07:13:16 AM 44.6913 -64.6309 56° Northeast 556 640 33,000  Level FlightAware
Wed 07:13:46 AM 44.7384 -64.5316 56° Northeast 555 639 33,000  Level FlightAware
Wed 07:14:16 AM 44.7807 -64.4423 56° Northeast 554 638 33,000  Level FlightAware
Wed 07:15:08 AM 44.8553 -64.2847 56° Northeast 554 638 33,000  Level FlightAware
Wed 07:15:46 AM 44.9095 -64.1690 57° Northeast 556 640 33,000  Level FlightAware
Wed 07:16:19 AM 44.9554 -64.0708 57° Northeast 557 641 33,000  Level FlightAware
Wed 07:16:49 AM 44.9991 -63.9770 57° Northeast 559 643 33,000  Level FlightAware
Wed 07:17:24 AM 45.0472 -63.8736 57° Northeast 561 646 33,000  Level FlightAware
Wed 07:17:54 AM 45.0905 -63.7796 57° Northeast 562 647 33,000  Level FlightAware
Wed 07:18:28 AM 45.1398 -63.6734 57° Northeast 564 649 33,000  Level FlightAware
Wed 07:19:19 AM 45.2074 -63.5262 57° Northeast 566 651 33,000  Level FlightAware
Wed 07:19:59 AM 45.2636 -63.4034 57° Northeast 568 654 33,000  Level FlightAware
Wed 07:20:55 AM 45.3480 -63.2170 57° Northeast 568 654 33,000  Level FlightAware
Wed 07:21:30 AM 45.3950 -63.1130 57° Northeast 568 654 33,000  Level FlightAware
Wed 07:22:06 AM 45.4490 -62.9930 57° Northeast 567 652 33,000  Level FlightAware
Wed 07:22:47 AM 45.5070 -62.8650 57° Northeast 566 651 33,000  Level FlightAware
Wed 07:23:26 AM 45.5610 -62.7430 58° Northeast 565 650 33,000  Level FlightAware
Wed 07:24:07 AM 45.6190 -62.6140 57° Northeast 565 650 33,000  Level FlightAware
Wed 07:24:40 AM 45.6650 -62.5110 57° Northeast 565 650 33,000  Level FlightAware
Wed 07:25:23 AM 45.7240 -62.3760 58° Northeast 565 650 33,000  Level FlightAware
Wed 07:25:51 AM 45.7630 -62.2870 58° Northeast 567 652 33,000  Level FlightAware
Wed 07:26:34 AM 45.8240 -62.1480 58° Northeast 569 655 33,000  Level FlightAware
Wed 07:27:14 AM 45.8790 -62.0230 58° Northeast 571 657 33,000  Level FlightAware
Wed 07:27:51 AM 45.9310 -61.9020 58° Northeast 574 661 33,000  Level FlightAware
Wed 07:28:25 AM 45.9790 -61.7920 58° Northeast 576 663 33,000 87 Level FlightAware
Wed 07:29:00 AM 46.0280 -61.6770 58° Northeast 578 665 33,100  Climbing FlightAware
Wed 07:29:37 AM 46.0790 -61.5580 58° Northeast 580 667 33,000 -73 Descending FlightAware
Wed 07:30:22 AM 46.1430 -61.4080 58° Northeast 580 667 33,000 71 Level FlightAware
Wed 07:31:02 AM 46.1990 -61.2770 58° Northeast 578 665 33,100 667 Climbing FlightAware
Wed 07:31:43 AM 46.2550 -61.1440 59° Northeast 573 659 33,900 1,068 Climbing FlightAware
Wed 07:32:15 AM 46.2990 -61.0370 59° Northeast 575 662 34,400 845 Climbing FlightAware
Wed 07:32:54 AM 46.3530 -60.9090 59° Northeast 576 663 34,900 500 Climbing FlightAware
Wed 07:33:27 AM 46.3980 -60.8010 59° Northeast 573 659 35,000 98 Climbing FlightAware
Wed 07:33:55 AM 46.4360 -60.7110 58° Northeast 572 658 35,000  Level FlightAware
Wed 07:34:38 AM 46.4950 -60.5670 59° Northeast 578 665 35,000  Level FlightAware
Wed 07:35:12 AM 46.5400 -60.4570 59° Northeast 581 669 35,000  Level FlightAware
Wed 07:35:52 AM 46.5970 -60.3170 59° Northeast 581 669 35,000  Level FlightAware
Wed 07:36:16 AM 46.6300 -60.2370 59° Northeast 581 669 35,000  Level FlightAware
Wed 07:36:56 AM 46.6840 -60.1040 59° Northeast 579 666 35,000  Level FlightAware
Wed 07:38:12 AM 46.7870 -59.8490 59° Northeast 578 665 35,000  Level FlightAware
Wed 07:39:00 AM 46.8520 -59.6880 59° Northeast 577 664 35,000  Level FlightAware
Wed 07:39:36 AM 46.9010 -59.5650 60° Northeast 577 664 35,000  Level FlightAware
Wed 07:40:02 AM 46.9350 -59.4780 60° Northeast 577 664 35,000  Level FlightAware
Wed 07:40:40 AM 46.9850 -59.3520 60° Northeast 577 664 35,000  Level FlightAware
Wed 07:41:24 AM 47.0440 -59.2020 60° Northeast 577 664 35,000  Level FlightAware
Wed 07:41:53 AM 47.0810 -59.1080 60° Northeast 576 663 35,000  Level FlightAware
Wed 07:42:22 AM 47.1210 -59.0040 60° Northeast 579 666 35,000  Level FlightAware
Wed 07:42:59 AM 47.1680 -58.8830 60° Northeast 580 667 35,000  Level FlightAware
Wed 07:43:44 AM 47.2290 -58.7250 60° Northeast 581 669 35,000 71 Level FlightAware
Wed 07:44:24 AM 47.2820 -58.5890 60° Northeast 582 670 35,100  Climbing FlightAware
Wed 07:44:54 AM 47.3190 -58.4920 61° Northeast 583 671 35,000 -81 Descending FlightAware
Wed 07:45:38 AM 47.3800 -58.3330 60° Northeast 583 671 35,000  Level FlightAware
Wed 07:46:18 AM 47.4280 -58.2050 61° Northeast 583 671 35,000  Level FlightAware
Wed 07:46:49 AM 47.4680 -58.0980 61° Northeast 584 672 35,000 -85 Level FlightAware
Wed 07:47:29 AM 47.5260 -57.9450 61° Northeast 583 671 34,900  Descending FlightAware
Wed 07:47:59 AM 47.5630 -57.8450 61° Northeast 583 671 35,000 85 Climbing FlightAware
Wed 07:48:40 AM 47.6130 -57.7120 61° Northeast 583 671 35,000  Level FlightAware
Wed 07:49:20 AM 47.6670 -57.5640 62° Northeast 583 671 35,000  Level FlightAware
Wed 07:49:59 AM 47.7200 -57.4210 61° Northeast 584 672 35,000  Level FlightAware
Wed 07:50:25 AM 47.7470 -57.3470 61° Northeast 583 671 35,000  Level FlightAware
Wed 07:51:09 AM 47.8060 -57.1780 62° Northeast 582 670 35,000 80 Level FlightAware
Wed 07:51:40 AM 47.8450 -57.0680 62° Northeast 583 671 35,100  Climbing FlightAware
Wed 07:52:14 AM 47.8880 -56.9440 63° Northeast 582 670 35,000 -80 Descending FlightAware
Wed 07:52:55 AM 47.9380 -56.8010 62° Northeast 582 670 35,000  Level FlightAware
Wed 07:53:54 AM 48.0110 -56.5880 63° Northeast 576 663 35,000  Level FlightAware
Wed 07:54:59 AM 48.0880 -56.3640 63° Northeast 570 656 35,000  Level FlightAware
Wed 07:55:44 AM 48.1430 -56.2030 63° Northeast 567 652 35,000  Level FlightAware
Wed 07:56:35 AM 48.2020 -56.0270 63° Northeast 567 652 35,000  Level FlightAware
Wed 07:57:14 AM 48.2490 -55.8850 64° Northeast 566 651 35,000  Level FlightAware
Wed 07:57:44 AM 48.2840 -55.7800 63° Northeast 566 651 35,000  Level FlightAware
Wed 07:58:26 AM 48.3290 -55.6450 63° Northeast 566 651 35,000  Level FlightAware
Wed 07:59:09 AM 48.3830 -55.4830 63° Northeast 568 654 35,000  Level FlightAware
Wed 07:59:49 AM 48.4290 -55.3420 64° Northeast 570 656 35,000  Level FlightAware
Wed 08:00:34 AM 48.4820 -55.1790 64° Northeast 573 659 35,000  Level FlightAware
Wed 08:01:39 AM 48.5580 -54.9460 64° Northeast 576 663 35,000  Level FlightAware
Wed 08:02:14 AM 48.5980 -54.8190 64° Northeast 576 663 35,000  Level FlightAware
Wed 08:02:44 AM 48.6330 -54.7110 64° Northeast 576 663 35,000  Level FlightAware
Wed 08:03:24 AM 48.6790 -54.5660 64° Northeast 575 662 35,000  Level FlightAware
Wed 08:04:00 AM 48.7190 -54.4410 64° Northeast 576 663 35,000  Level FlightAware
Wed 08:04:54 AM 48.7820 -54.2400 64° Northeast 574 661 35,000  Level FlightAware
Wed 08:05:31 AM 48.8220 -54.1120 65° Northeast 575 662 35,000  Level FlightAware
Wed 08:06:10 AM 48.8670 -53.9670 65° Northeast 575 662 35,000  Level FlightAware
Wed 08:06:44 AM 48.9060 -53.8390 65° Northeast 578 665 35,000  Level FlightAware
Wed 08:07:09 AM 48.9340 -53.7490 65° Northeast 579 666 35,000  Level FlightAware
Wed 08:07:39 AM 48.9680 -53.6380 65° Northeast 580 667 35,000  Level FlightAware
Wed 08:08:24 AM 49.0190 -53.4690 65° Northeast 583 671 35,000  Level FlightAware
Wed 08:09:04 AM 49.0650 -53.3200 65° Northeast 583 671 35,000  Level FlightAware
Wed 08:09:49 AM 49.1150 -53.1540 65° Northeast 580 667 35,000  Level FlightAware
Wed 08:10:34 AM 49.1650 -52.9870 65° Northeast 577 664 35,000  Level FlightAware
Wed 08:11:00 AM 49.1910 -52.8990 66° East 577 664 35,000  Level FlightAware
Wed 08:11:40 AM 49.2300 -52.7660 66° East 576 663 35,000  Level FlightAware
Wed 08:12:16 AM 49.2770 -52.6070 66° East 575 662 35,000  Level FlightAware
Wed 08:12:43 AM 49.3020 -52.5200 66° East 575 662 35,000  Level FlightAware
Wed 08:13:19 AM 49.3420 -52.3820 66° East 576 663 35,000  Level FlightAware
Wed 08:13:41 AM 49.3680 -52.2920 66° East 577 664 35,000  Level FlightAware
Wed 08:14:24 AM 49.4150 -52.1300 66° East 582 670 35,000  Level FlightAware
Wed 08:15:15 AM 49.4650 -51.9550 66° East 585 673 35,000  Level FlightAware
Wed 08:15:49 AM 49.5070 -51.8080 66° East 586 674 35,000  Level FlightAware
Wed 08:16:34 AM 49.5550 -51.6370 67° East 585 673 35,000  Level FlightAware
Wed 08:17:24 AM 49.6080 -51.4470 67° East 582 670 35,000  Level FlightAware
Wed 08:17:59 AM 49.6430 -51.3220 67° East 581 669 35,000  Level FlightAware
Wed 08:18:34 AM 49.6780 -51.1970 67° East 580 667 35,000  Level FlightAware
Wed 08:19:12 AM 49.7140 -51.0660 67° East 580 667 35,000  Level FlightAware
Wed 08:19:53 AM 49.7520 -50.9340 66° East 580 667 35,000  Level FlightAware
Wed 08:20:28 AM 49.7840 -50.8210 66° East 580 667 35,000  Level FlightAware
Wed 08:21:04 AM 49.8180 -50.7040 66° East 580 667 35,000  Level FlightAware
Wed 08:21:42 AM 49.8530 -50.5820 66° East 580 667 35,000  Level FlightAware
Wed 08:22:18 AM 49.8860 -50.4650 66° East 580 667 35,000  Level FlightAware
Wed 08:22:54 AM 49.9200 -50.3490 65° Northeast 580 667 35,000  Level FlightAware
Wed 08:23:43 AM 49.9650 -50.1900 66° East 580 667 35,000  Level FlightAware
Wed 08:24:19 AM 49.9980 -50.0730 66° East 580 667 35,000  Level FlightAware
Wed 08:24:55 AM 50.0320 -49.9570 65° Northeast 580 667 35,000  Level FlightAware
Wed 08:25:31 AM 50.0650 -49.8400 66° East 580 667 35,000  Level FlightAware
Wed 08:26:19 AM 50.1100 -49.6840 66° East 580 667 35,000  Level FlightAware
Wed 08:26:56 AM 50.1440 -49.5640 66° East 580 667 35,000  Level FlightAware
Wed 08:27:32 AM 50.1770 -49.4470 66° East 580 667 35,000  Level FlightAware
Wed 08:28:20 AM 50.2220 -49.2900 66° East 580 667 35,000  Level FlightAware
Wed 08:28:44 AM 50.2440 -49.2120 66° East 580 667 35,000  Level FlightAware
Wed 08:29:08 AM 50.2660 -49.1340 66° East 580 667 35,000  Level FlightAware
Wed 08:30:06 AM 50.5833 -48.6500 66° East 580 667 35,000  Level Gander Center
Wed 08:31:06 AM 50.6833 -48.4333 54° Northeast 570 656 35,000  Level Gander Center
Wed 08:33:00 AM 50.8435 -48.1079 52° Northeast  Level FlightAware
Wed 08:40:00 AM 51.4438 -46.8038 55° Northeast  Level FlightAware
Wed 08:41:00 AM 51.5252 -46.6113 56° Northeast  Level FlightAware
Wed 08:42:00 AM 51.6063 -46.4181 56° Northeast  Level FlightAware
Wed 08:43:00 AM 51.6871 -46.2242 56° Northeast  Level FlightAware
Wed 08:44:00 AM 51.7675 -46.0297 56° Northeast  Level FlightAware
Wed 08:45:00 AM 51.8477 -45.8344 56° Northeast  Level FlightAware
Wed 08:46:00 AM 51.9275 -45.6385 57° Northeast  Level FlightAware
Wed 08:47:00 AM 52.0070 -45.4418 57° Northeast  Level FlightAware
Wed 08:48:00 AM 52.0861 -45.2444 57° Northeast  Level FlightAware
Wed 08:49:00 AM 52.1650 -45.0464 57° Northeast  Level FlightAware
Wed 08:50:00 AM 52.2440 -44.8482 57° Northeast  Level FlightAware
Wed 08:51:00 AM 52.3228 -44.6494 57° Northeast  Level FlightAware
Wed 08:52:00 AM 52.4013 -44.4500 57° Northeast  Level FlightAware
Wed 08:53:00 AM 52.4795 -44.2498 57° Northeast  Level FlightAware
Wed 08:54:00 AM 52.5573 -44.0489 57° Northeast  Level FlightAware
Wed 08:55:00 AM 52.6348 -43.8474 58° Northeast  Level FlightAware
Wed 08:56:00 AM 52.7119 -43.6451 58° Northeast  Level FlightAware
Wed 08:57:00 AM 52.7887 -43.4420 58° Northeast  Level FlightAware
Wed 08:58:00 AM 52.8651 -43.2383 58° Northeast  Level FlightAware
Wed 08:59:00 AM 52.9412 -43.0339 58° Northeast  Level FlightAware
Wed 09:00:00 AM 53.0170 -42.8287 58° Northeast  Level FlightAware
Wed 09:01:00 AM 53.0924 -42.6228 59° Northeast  Level FlightAware
Wed 09:02:00 AM 53.1674 -42.4162 59° Northeast  Level FlightAware
Wed 09:03:00 AM 53.2421 -42.2089 59° Northeast  Level FlightAware
Wed 09:04:00 AM 53.3164 -42.0008 59° Northeast  Level FlightAware
Wed 09:05:00 AM 53.3903 -41.7920 59° Northeast  Level FlightAware
Wed 09:06:00 AM 53.4639 -41.5825 59° Northeast  Level FlightAware
Wed 09:07:00 AM 53.5371 -41.3723 60° Northeast  Level FlightAware
Wed 09:08:00 AM 53.6100 -41.1613 60° Northeast  Level FlightAware
Wed 09:09:00 AM 53.6824 -40.9496 60° Northeast  Level FlightAware
Wed 09:10:00 AM 53.7545 -40.7372 60° Northeast  Level FlightAware
Wed 09:11:00 AM 53.8263 -40.5241 60° Northeast  Level FlightAware
Wed 09:12:00 AM 53.8976 -40.3102 60° Northeast  Level FlightAware
Wed 09:13:00 AM 53.9686 -40.0956 61° Northeast  Level FlightAware
Wed 09:14:00 AM 54.0190 -39.8669 76° East  Level FlightAware
Wed 09:15:00 AM 54.0528 -39.6270 76° East  Level FlightAware
Wed 09:16:00 AM 54.0862 -39.3867 77° East  Level FlightAware
Wed 09:17:00 AM 54.1190 -39.1460 77° East  Level FlightAware
Wed 09:18:00 AM 54.1514 -38.9049 77° East  Level FlightAware
Wed 09:19:00 AM 54.1833 -38.6634 77° East  Level FlightAware
Wed 09:20:00 AM 54.2147 -38.4216 77° East  Level FlightAware
Wed 09:21:00 AM 54.2456 -38.1794 78° East  Level FlightAware
Wed 09:22:00 AM 54.2761 -37.9369 78° East  Level FlightAware
Wed 09:23:00 AM 54.3060 -37.6940 78° East  Level FlightAware
Wed 09:24:00 AM 54.3355 -37.4507 78° East  Level FlightAware
Wed 09:25:00 AM 54.3645 -37.2071 78° East  Level FlightAware
Wed 09:26:00 AM 54.3930 -36.9632 79° East  Level FlightAware
Wed 09:27:00 AM 54.4210 -36.7189 79° East  Level FlightAware
Wed 09:28:00 AM 54.4484 -36.4743 79° East  Level FlightAware
Wed 09:29:00 AM 54.4754 -36.2293 79° East  Level FlightAware
Wed 09:30:00 AM 54.5020 -35.9841 79° East  Level FlightAware
Wed 09:31:00 AM 54.5280 -35.7385 80° East  Level FlightAware
Wed 09:32:00 AM 54.5535 -35.4926 80° East  Level FlightAware
Wed 09:33:00 AM 54.5785 -35.2464 80° East  Level FlightAware
Wed 09:34:00 AM 54.6030 -34.9999 80° East  Level FlightAware
Wed 09:35:00 AM 54.6270 -34.7532 80° East  Level FlightAware
Wed 09:36:00 AM 54.6505 -34.5061 81° East  Level FlightAware
Wed 09:37:00 AM 54.6738 -34.2588 81° East  Level FlightAware
Wed 09:38:00 AM 54.6970 -34.0114 81° East  Level FlightAware
Wed 09:39:00 AM 54.7197 -33.7637 81° East  Level FlightAware
Wed 09:40:00 AM 54.7419 -33.5157 81° East  Level FlightAware
Wed 09:41:00 AM 54.7635 -33.2674 81° East  Level FlightAware
Wed 09:42:00 AM 54.7847 -33.0189 81° East  Level FlightAware
Wed 09:43:00 AM 54.8054 -32.7701 82° East  Level FlightAware
Wed 09:44:00 AM 54.8255 -32.5211 82° East  Level FlightAware
Wed 09:45:00 AM 54.8452 -32.2718 82° East  Level FlightAware
Wed 09:46:00 AM 54.8643 -32.0223 82° East  Level FlightAware
Wed 09:47:00 AM 54.8830 -31.7725 83° East  Level FlightAware
Wed 09:48:00 AM 54.9011 -31.5225 83° East  Level FlightAware
Wed 09:49:00 AM 54.9187 -31.2723 83° East  Level FlightAware
Wed 09:50:00 AM 54.9357 -31.0219 83° East  Level FlightAware
Wed 09:51:00 AM 54.9523 -30.7713 83° East  Level FlightAware
Wed 09:52:00 AM 54.9684 -30.5205 84° East  Level FlightAware
Wed 09:53:00 AM 54.9839 -30.2694 84° East  Level FlightAware
Wed 09:54:00 AM 54.9989 -30.0182 84° East  Level FlightAware
Wed 09:55:00 AM 54.9865 -29.7669 96° East  Level FlightAware
Wed 09:56:00 AM 54.9714 -29.5158 96° East  Level FlightAware
Wed 09:57:00 AM 54.9558 -29.2648 96° East  Level FlightAware
Wed 09:58:00 AM 54.9398 -29.0141 96° East  Level FlightAware
Wed 09:59:00 AM 54.9231 -28.7635 96° East  Level FlightAware
Wed 10:00:00 AM 54.9060 -28.5132 97° East  Level FlightAware
Wed 10:01:00 AM 54.8884 -28.2631 97° East  Level FlightAware
Wed 10:02:00 AM 54.8702 -28.0132 97° East  Level FlightAware
Wed 10:03:00 AM 54.8516 -27.7635 97° East  Level FlightAware
Wed 10:04:00 AM 54.8324 -27.5141 98° East  Level FlightAware
Wed 10:05:00 AM 54.8127 -27.2649 98° East  Level FlightAware
Wed 10:06:00 AM 54.7925 -27.0159 98° East  Level FlightAware
Wed 10:07:00 AM 54.7718 -26.7673 98° East  Level FlightAware
Wed 10:08:00 AM 54.7506 -26.5188 98° East  Level FlightAware
Wed 10:09:00 AM 54.7289 -26.2706 99° East  Level FlightAware
Wed 10:10:00 AM 54.7066 -26.0227 99° East  Level FlightAware
Wed 10:11:00 AM 54.6839 -25.7751 99° East  Level FlightAware
Wed 10:12:00 AM 54.6607 -25.5278 99° East  Level FlightAware
Wed 10:13:00 AM 54.6369 -25.2807 99° East  Level FlightAware
Wed 10:14:00 AM 54.6127 -25.0339 100° East  Level FlightAware
Wed 10:15:00 AM 54.5880 -24.7875 100° East  Level FlightAware
Wed 10:16:00 AM 54.5627 -24.5413 100° East  Level FlightAware
Wed 10:17:00 AM 54.5370 -24.2954 100° East  Level FlightAware
Wed 10:18:00 AM 54.5107 -24.0499 100° East  Level FlightAware
Wed 10:19:00 AM 54.4840 -23.8046 101° East  Level FlightAware
Wed 10:20:00 AM 54.4568 -23.5597 101° East  Level FlightAware
Wed 10:21:00 AM 54.4290 -23.3151 101° East  Level FlightAware
Wed 10:22:00 AM 54.4008 -23.0709 101° East  Level FlightAware
Wed 10:23:00 AM 54.3721 -22.8270 101° East  Level FlightAware
Wed 10:24:00 AM 54.3429 -22.5834 102° East  Level FlightAware
Wed 10:25:00 AM 54.3132 -22.3402 102° East  Level FlightAware
Wed 10:26:00 AM 54.2830 -22.0973 102° East  Level FlightAware
Wed 10:27:00 AM 54.2523 -21.8548 102° East  Level FlightAware
Wed 10:28:00 AM 54.2212 -21.6127 102° East  Level FlightAware
Wed 10:29:00 AM 54.1895 -21.3709 103° East  Level FlightAware
Wed 10:30:00 AM 54.1574 -21.1295 103° East  Level FlightAware
Wed 10:31:00 AM 54.1248 -20.8885 103° East  Level FlightAware
Wed 10:32:00 AM 54.0917 -20.6479 103° East  Level FlightAware
Wed 10:33:00 AM 54.0582 -20.4076 103° East  Level FlightAware
Wed 10:34:00 AM 54.0241 -20.1677 103° East  Level FlightAware
Wed 10:35:00 AM 53.9950 -19.9266 97° East  Level FlightAware
Wed 10:36:00 AM 53.9778 -19.6819 97° East  Level FlightAware
Wed 10:37:00 AM 53.9602 -19.4374 97° East  Level FlightAware
Wed 10:38:00 AM 53.9420 -19.1931 97° East  Level FlightAware
Wed 10:39:00 AM 53.9234 -18.9490 97° East  Level FlightAware
Wed 10:40:00 AM 53.9043 -18.7051 97° East  Level FlightAware
Wed 10:41:00 AM 53.8847 -18.4615 98° East  Level FlightAware
Wed 10:42:00 AM 53.8645 -18.2181 98° East  Level FlightAware
Wed 10:43:00 AM 53.8439 -17.9749 98° East  Level FlightAware
Wed 10:44:00 AM 53.8228 -17.7320 98° East  Level FlightAware
Wed 10:45:00 AM 53.8012 -17.4893 98° East  Level FlightAware
Wed 10:46:00 AM 53.7792 -17.2468 99° East  Level FlightAware
Wed 10:47:00 AM 53.7566 -17.0047 99° East  Level FlightAware
Wed 10:48:00 AM 53.7336 -16.7628 99° East  Level FlightAware
Wed 10:49:00 AM 53.7100 -16.5211 99° East  Level FlightAware
Wed 10:50:00 AM 53.6860 -16.2798 99° East  Level FlightAware
Wed 10:51:00 AM 53.6615 -16.0387 100° East  Level FlightAware
Wed 10:52:00 AM 53.6365 -15.7978 100° East  Level FlightAware
Wed 10:53:00 AM 53.6110 -15.5573 100° East  Level FlightAware
Wed 10:54:00 AM 53.5850 -15.3171 100° East  Level FlightAware
Wed 10:55:00 AM 53.5586 -15.0772 100° East  Level FlightAware
Wed 10:56:00 AM 53.5316 -14.8376 101° East  Level FlightAware
Wed 10:56:31 AM 52.8250 -12.4330 101° East 540 621 35,000  Level FlightAware
Wed 10:57:00 AM 53.5040 -14.5983 101° East  Level FlightAware
Wed 10:57:11 AM 52.8120 -12.2680 97° East 540 621 35,000  Level FlightAware
Wed 10:57:36 AM 52.8030 -12.1670 98° East 542 624 35,000  Level FlightAware
Wed 10:58:16 AM 52.7900 -12.0020 97° East 544 626 35,000  Level FlightAware
Wed 10:58:56 AM 52.7760 -11.8350 98° East 545 627 35,000  Level FlightAware
Wed 10:59:28 AM 52.7650 -11.7130 98° East 546 628 35,000 825 Level FlightAware
Wed 11:00:16 AM 52.7480 -11.5130 98° East 540 621 36,100 1,046 Climbing FlightAware
Wed 11:01:17 AM 52.7260 -11.2580 98° East 547 629 36,900 563 Climbing FlightAware
Wed 11:01:52 AM 52.7130 -11.1170 99° East 547 629 37,000 86 Climbing FlightAware
Wed 11:02:27 AM 52.7000 -10.9730 98° East 546 628 37,000  Level FlightAware
Wed 11:03:08 AM 52.6840 -10.8010 99° East 547 629 37,000  Level FlightAware
Wed 11:03:39 AM 52.6720 -10.6750 99° East 545 627 37,000  Level FlightAware
Wed 11:04:38 AM 52.6480 -10.4300 99° East 543 625 37,000  Level FlightAware
Wed 11:05:13 AM 52.6350 -10.2930 99° East 540 621 37,000  Level FlightAware
Wed 11:05:43 AM 52.6230 -10.1710 99° East 537 618 37,000  Level FlightAware
Wed 11:06:29 AM 52.6050 -9.9910 99° East 534 615 37,000  Level FlightAware
Wed 11:07:03 AM 52.5900 -9.8480 100° East 530 610 37,000  Level FlightAware
Wed 11:07:38 AM 52.5790 -9.7410 100° East 530 610 37,000  Level FlightAware
Wed 11:09:04 AM 52.6391 -10.3344 280° West 529 609 37,000  Level FlightAware
Wed 11:09:49 AM 52.5210 -9.1890 99° East 527 606 37,000  Level FlightAware
Wed 11:10:20 AM 52.5080 -9.0690 99° East 527 606 37,000  Level FlightAware
Wed 11:10:38 AM 52.4997 -8.9955 99° East 474 545 37,000  Level FlightAware
Wed 11:10:57 AM 52.4930 -8.9300 99° East 527 606 37,000 -200 Level FlightAware
Wed 11:11:08 AM 52.4868 -8.8770 99° East 468 539 36,900  Descending FlightAware
Wed 11:11:32 AM 52.4900 -8.9040 100° East 530 610 37,000  Climbing FlightAware
Wed 11:11:38 AM 52.4737 -8.7585 99° East 468 539 36,900 -167 Descending FlightAware
Wed 11:12:08 AM 52.4605 -8.6404 100° East 472 543 36,900 143 Level FlightAware
Wed 11:12:20 AM 52.4570 -8.6080 100° East 534 615 37,000  Climbing FlightAware
Wed 11:12:38 AM 52.4470 -8.5215 100° East 472 543 36,900  Descending FlightAware
Wed 11:13:10 AM 52.4547 -8.5886 101° East 534 615 37,000 148 Climbing FlightAware
Wed 11:13:59 AM 52.4351 -8.4167 101° East 542 624 37,100  Climbing FlightAware (EPBY / BZG)
Wed 11:14:38 AM 52.3914 -8.0409 101° East 482 555 37,000 -95 Descending FlightAware
Wed 11:15:02 AM 52.4039 -8.1470 101° East 546 628 37,000  Level FlightAware (EPBY / BZG)
Wed 11:15:38 AM 52.3625 -7.7955 101° East 482 555 37,000  Level FlightAware
Wed 11:16:08 AM 52.3477 -7.6744 101° East 484 557 37,000  Level FlightAware
Wed 11:16:38 AM 52.3330 -7.5539 101° East 484 557 37,000  Level FlightAware
Wed 11:16:45 AM 52.3294 -7.5289 101° East 541 623 37,000  Level FlightAware
Wed 11:17:16 AM 52.3155 -7.4159 101° East 539 620 37,000 -95 Level FlightAware
Wed 11:17:48 AM 52.3022 -7.3084 101° East 535 616 36,900  Descending FlightAware (EPBY / BZG)
Wed 11:18:21 AM 52.2823 -7.1497 102° East 538 619 37,000 92 Climbing FlightAware
Wed 11:18:53 AM 52.2670 -7.0305 102° East 542 624 37,000  Level FlightAware (EIDW / DUB)
Wed 11:19:03 AM 52.2609 -6.9829 102° East 541 623 37,000  Level FlightAware
Wed 11:19:33 AM 52.2453 -6.8625 102° East 546 628 37,000  Level FlightAware (EIDW / DUB)
Wed 11:20:05 AM 52.2300 -6.7437 102° East 544 626 37,000  Level FlightAware
Wed 11:20:39 AM 52.2115 -6.6007 102° East 541 623 37,000  Level FlightAware
Wed 11:21:11 AM 52.1944 -6.4718 102° East 539 620 37,000  Level FlightAware (EPBY / BZG)
Wed 11:21:44 AM 52.1770 -6.3415 102° East 537 618 37,000  Level FlightAware
Wed 11:22:18 AM 52.1589 -6.2074 102° East 536 617 37,000  Level FlightAware
Wed 11:22:49 AM 52.1433 -6.0927 102° East 535 616 37,000  Level FlightAware
Wed 11:23:23 AM 52.1393 -6.0623 102° East 535 616 37,000  Level FlightAware
Wed 11:23:59 AM 52.1113 -5.8114 100° East 529 609 37,000  Level FlightAware
Wed 11:24:32 AM 52.0969 -5.6839 100° East 526 605 37,000  Level FlightAware
Wed 11:25:02 AM 52.0839 -5.5707 101° East 523 602 37,000  Level FlightAware
Wed 11:25:33 AM 52.0814 -5.5498 101° East 521 600 37,000  Level FlightAware
Wed 11:26:07 AM 52.0543 -5.3184 101° East 518 596 37,000 -94 Level FlightAware
Wed 11:26:37 AM 52.0411 -5.2063 101° East 515 593 36,900 -97 Descending FlightAware
Wed 11:27:09 AM 52.0261 -5.0817 101° East 470 541 36,900 154 Level FlightAware
Wed 11:27:16 AM 52.0260 -5.0805 101° East 512 589 37,000 162 Climbing FlightAware
Wed 11:27:46 AM 52.0094 -4.9425 101° East 507 583 37,000  Level FlightAware
Wed 11:28:19 AM 51.9946 -4.8215 101° East 505 581 37,000  Level FlightAware (EGCW)
Wed 11:28:49 AM 51.9813 -4.7140 101° East 502 578 37,000  Level FlightAware (EGCW)
Wed 11:29:01 AM 51.9756 -4.6694 102° East 500 575 37,000 -143 Level FlightAware
Wed 11:29:31 AM 51.9617 -4.5579 101° East 498 573 36,900  Descending FlightAware
Wed 11:30:04 AM 51.9470 -4.4414 101° East 497 572 37,000 95 Climbing FlightAware (EGCW)
Wed 11:30:34 AM 51.9328 -4.3297 102° East 497 572 37,000  Level FlightAware (EGCW)
Wed 11:30:59 AM 51.9212 -4.2389 102° East 499 574 37,000  Level FlightAware
Wed 11:31:03 AM 51.9190 -4.2227 102° East 499 574 37,000  Level FlightAware
Wed 11:31:09 AM 51.9165 -4.2034 102° East 500 575 37,000  Level FlightAware
Wed 11:31:26 AM 51.9079 -4.1367 102° East 503 579 37,000  Level FlightAware
Wed 11:31:49 AM 51.8971 -4.0530 102° East 508 585 37,000  Level FlightAware (EGDX / DGX)
Wed 11:32:09 AM 51.8884 -3.9813 101° East 511 588 37,000  Level FlightAware (EGHH / BOH)
Wed 11:32:42 AM 51.8801 -3.8919 99° East 516 594 37,000  Level FlightAware
Wed 11:33:13 AM 51.8670 -3.7465 98° East 517 595 37,000  Level FlightAware
Wed 11:33:24 AM 51.8622 -3.6953 98° East 514 592 37,000  Level FlightAware
Wed 11:33:57 AM 51.8522 -3.5857 98° East 505 581 37,000  Level FlightAware (EGDM)
Wed 11:34:09 AM 51.8464 -3.5228 98° East 499 574 37,000  Level FlightAware
Wed 11:34:33 AM 51.8384 -3.4356 98° East 497 572 37,000  Level FlightAware
Wed 11:34:51 AM 51.8322 -3.3690 99° East 498 573 37,000  Level FlightAware (EGDM)
Wed 11:35:01 AM 51.8290 -3.3363 99° East 498 573 37,000  Level FlightAware (EGDM)
Wed 11:35:04 AM 51.8275 -3.3212 99° East 498 573 37,000  Level FlightAware
Wed 11:35:23 AM 51.8206 -3.2511 99° East 500 575 37,000  Level FlightAware
Wed 11:35:35 AM 51.8172 -3.2165 99° East 503 579 37,000  Level FlightAware
Wed 11:35:54 AM 51.8096 -3.1384 99° East 506 582 37,000  Level FlightAware
Wed 11:36:08 AM 51.8077 -3.1192 99° East 508 585 37,000  Level FlightAware
Wed 11:36:24 AM 51.7986 -3.0255 99° East 509 586 37,000  Level FlightAware
Wed 11:36:55 AM 51.7874 -2.9101 99° East 512 589 37,000  Level FlightAware
Wed 11:36:57 AM 51.7883 -2.9199 279° West 512 589 37,000  Level FlightAware (EGDX / DGX)
Wed 11:37:27 AM 51.7754 -2.7898 99° East 513 590 37,000  Level FlightAware
Wed 11:37:28 AM 51.7750 -2.7865 100° East 513 590 37,000  Level FlightAware (EGDX / DGX)
Wed 11:37:57 AM 51.7639 -2.6761 99° East 512 589 37,000  Level FlightAware
Wed 11:37:59 AM 51.7637 -2.6746 100° East 512 589 37,000  Level FlightAware (EGCW)
Wed 11:38:29 AM 51.7516 -2.5544 99° East 512 589 37,000  Level FlightAware
Wed 11:38:30 AM 51.7512 -2.5510 101° East 512 589 37,000  Level FlightAware
Wed 11:39:01 AM 51.7391 -2.4357 100° East 510 587 37,000  Level FlightAware
Wed 11:39:31 AM 51.7275 -2.3231 99° East 509 586 37,000  Level FlightAware
Wed 11:40:01 AM 51.7165 -2.2175 100° East 510 587 37,000  Level FlightAware (EGCW)
Wed 11:40:03 AM 51.7150 -2.2040 100° East 510 587 37,000  Level FlightAware
Wed 11:40:18 AM 51.7100 -2.1564 100° East 511 588 37,000  Level FlightAware (EGDX / DGX)
Wed 11:40:33 AM 51.7031 -2.0917 100° East 510 587 37,000 -200 Level FlightAware
Wed 11:40:48 AM 51.6980 -2.0436 100° East 510 587 36,900  Descending FlightAware (EGDM)
Wed 11:40:54 AM 51.6953 -2.0185 100° East 510 587 37,000 545 Climbing FlightAware
Wed 11:40:59 AM 51.6929 -1.9956 100° East 508 585 37,000  Level FlightAware (EGHH / BOH)
Wed 11:41:03 AM 51.6911 -1.9794 100° East 510 587 37,000  Level FlightAware
Wed 11:41:04 AM 51.6907 -1.9762 101° East 508 585 37,000  Level FlightAware
Wed 11:41:13 AM 51.6870 -1.9426 100° East 507 583 37,000  Level FlightAware
Wed 11:41:20 AM 51.6844 -1.9188 100° East 507 583 37,000  Level FlightAware (EGHH / BOH)
Wed 11:41:23 AM 51.6829 -1.9040 100° East 507 583 37,000  Level FlightAware
Wed 11:41:26 AM 51.6819 -1.8950 100° East 507 583 37,000  Level FlightAware (EGHH / BOH)
Wed 11:41:33 AM 51.6789 -1.8671 100° East 508 585 37,000  Level FlightAware
Wed 11:41:39 AM 51.6768 -1.8477 100° East 507 583 37,000  Level FlightAware
Wed 11:41:45 AM 51.6748 -1.8295 100° East 508 585 37,000  Level FlightAware
Wed 11:41:55 AM 51.6702 -1.7878 100° East 507 583 37,000  Level FlightAware
Wed 11:42:04 AM 51.6662 -1.7524 100° East 506 582 37,000  Level FlightAware
Wed 11:42:06 AM 51.6658 -1.7485 99° East 505 581 37,000  Level FlightAware
Wed 11:42:15 AM 51.6622 -1.7161 100° East 506 582 37,000  Level FlightAware
Wed 11:42:19 AM 51.6605 -1.7016 100° East 505 581 37,000  Level FlightAware
Wed 11:42:31 AM 51.6553 -1.6540 100° East 505 581 37,000  Level FlightAware
Wed 11:42:36 AM 51.6532 -1.6352 100° East 505 581 37,000  Level FlightAware
Wed 11:42:40 AM 51.6517 -1.6209 100° East 505 581 37,000  Level FlightAware
Wed 11:42:46 AM 51.6500 -1.6057 100° East 504 580 37,000  Level FlightAware (EGLF / FAB)
Wed 11:42:51 AM 51.6475 -1.5832 100° East 502 578 37,000  Level FlightAware
Wed 11:42:56 AM 51.6455 -1.5640 100° East 504 580 37,000  Level FlightAware
Wed 11:43:07 AM 51.6407 -1.5204 100° East 503 579 37,000  Level FlightAware
Wed 11:43:32 AM 51.6306 -1.4305 100° East 501 577 37,000  Level FlightAware
Wed 11:43:37 AM 51.6283 -1.4103 100° East 500 575 37,000  Level FlightAware
Wed 11:43:44 AM 51.6257 -1.3866 100° East 499 574 37,000  Level FlightAware (EGHH / BOH)
Wed 11:44:08 AM 51.6159 -1.3005 100° East 498 573 37,000  Level FlightAware
Wed 11:44:09 AM 51.6152 -1.2950 101° East 497 572 37,000  Level FlightAware
Wed 11:44:19 AM 51.6112 -1.2595 100° East 496 571 37,000  Level FlightAware (LSXS)
Wed 11:44:38 AM 51.6034 -1.1906 100° East 496 571 37,000  Level FlightAware
Wed 11:44:50 AM 51.5983 -1.1454 100° East 494 568 37,000  Level FlightAware
Wed 11:44:55 AM 51.5963 -1.1285 101° East 495 570 37,000  Level FlightAware
Wed 11:44:59 AM 51.5948 -1.1157 101° East 493 567 37,000  Level FlightAware (LSXS)
Wed 11:45:09 AM 51.5906 -1.0802 101° East 495 570 37,000  Level FlightAware
Wed 11:45:17 AM 51.5871 -1.0510 101° East 492 566 37,000  Level FlightAware
Wed 11:45:20 AM 51.5858 -1.0403 101° East 494 568 37,000  Level FlightAware (EGDX / DGX)
Wed 11:45:28 AM 51.5821 -1.0087 101° East 492 566 37,000  Level FlightAware
Wed 11:45:39 AM 51.5775 -0.9693 101° East 493 567 37,000  Level FlightAware
Wed 11:45:40 AM 51.5775 -0.9693 17° North 492 566 37,000  Level FlightAware
Wed 11:45:47 AM 51.5744 -0.9423 100° East 491 565 37,000  Level FlightAware
Wed 11:45:58 AM 51.5697 -0.9015 100° East 491 565 37,000  Level FlightAware
Wed 11:46:03 AM 51.5677 -0.8838 101° East 490 564 37,000  Level FlightAware
Wed 11:46:10 AM 51.5650 -0.8610 101° East 491 565 37,000  Level FlightAware
Wed 11:46:16 AM 51.5625 -0.8402 101° East 490 564 37,000  Level FlightAware (LSXS)
Wed 11:46:21 AM 51.5601 -0.8195 101° East 490 564 37,000  Level FlightAware
Wed 11:46:32 AM 51.5558 -0.7825 101° East 490 564 37,000  Level FlightAware
Wed 11:46:40 AM 51.5522 -0.7519 101° East 492 566 37,000  Level FlightAware
Wed 11:46:48 AM 51.5489 -0.7241 101° East 491 565 37,000  Level FlightAware (LSXS)
Wed 11:46:54 AM 51.5465 -0.7038 101° East 491 565 37,000  Level FlightAware (EGHI / SOU)
Wed 11:46:57 AM 51.5455 -0.6956 101° East 491 565 37,000  Level FlightAware
Wed 11:47:11 AM 51.5389 -0.6401 101° East 494 568 37,000  Level FlightAware
Wed 11:47:14 AM 51.5378 -0.6301 100° East 492 566 37,000  Level FlightAware
Wed 11:47:24 AM 51.5338 -0.5976 101° East 495 570 37,000  Level FlightAware
Wed 11:47:31 AM 51.5306 -0.5704 101° East 494 568 37,000  Level FlightAware
Wed 11:47:43 AM 51.5254 -0.5264 101° East 497 572 37,000  Level FlightAware
Wed 11:47:51 AM 51.5222 -0.4999 101° East 496 571 37,000  Level FlightAware
Wed 11:47:56 AM 51.5197 -0.4798 101° East 497 572 37,000  Level FlightAware (LSXS)
Wed 11:48:14 AM 51.5118 -0.4142 101° East 499 574 37,000  Level FlightAware
Wed 11:48:27 AM 51.5061 -0.3689 101° East 499 574 37,000  Level FlightAware
Wed 11:48:47 AM 51.4972 -0.2961 101° East 499 574 37,000  Level FlightAware
Wed 11:48:58 AM 51.4939 -0.2683 101° East 500 575 37,000  Level FlightAware
Wed 11:49:07 AM 51.4884 -0.2227 101° East 499 574 37,000  Level FlightAware (EGHH / BOH)
Wed 11:49:18 AM 51.4837 -0.1834 101° East 500 575 37,000  Level FlightAware
Wed 11:49:31 AM 51.4779 -0.1367 101° East 500 575 37,000  Level FlightAware
Wed 11:49:48 AM 51.4697 -0.0724 102° East 499 574 37,000  Level FlightAware
Wed 11:49:52 AM 51.4681 -0.0600 102° East 499 574 37,000  Level FlightAware
Wed 11:49:58 AM 51.4656 -0.0404 101° East 499 574 37,000  Level FlightAware
Wed 11:50:19 AM 51.4558 0.0372 101° East 499 574 37,000  Level FlightAware
Wed 11:50:35 AM 51.4485 0.0957 101° East 498 573 37,000  Level FlightAware
Wed 11:50:49 AM 51.4421 0.1461 101° East 497 572 37,000  Level FlightAware
Wed 11:51:07 AM 51.4338 0.2110 102° East 496 571 37,000  Level FlightAware (LSXS)
Wed 11:51:19 AM 51.4283 0.2543 102° East 496 571 37,000  Level FlightAware
Wed 11:51:37 AM 51.4200 0.3188 102° East 495 570 37,000  Level FlightAware (LSXS)
Wed 11:51:50 AM 51.4142 0.3637 102° East 495 570 37,000  Level FlightAware
Wed 11:52:07 AM 51.4060 0.4265 102° East 494 568 37,000  Level FlightAware (LSXS)
Wed 11:52:22 AM 51.3992 0.4786 102° East 494 568 37,000  Level FlightAware
Wed 11:52:38 AM 51.3945 0.5146 102° East 493 567 37,000  Level FlightAware
Wed 11:52:52 AM 51.3851 0.5869 102° East 493 567 37,000  Level FlightAware
Wed 11:53:20 AM 51.3728 0.6798 102° East 492 566 37,000  Level FlightAware
Wed 11:53:25 AM 51.3697 0.7027 102° East 492 566 37,000  Level FlightAware
Wed 11:53:50 AM 51.3596 0.7791 102° East 491 565 37,000  Level FlightAware
Wed 11:53:56 AM 51.3553 0.8118 102° East 491 565 37,000  Level FlightAware
Wed 11:54:23 AM 51.3424 0.9092 102° East 490 564 37,000  Level FlightAware
Wed 11:54:26 AM 51.3411 0.9193 102° East 490 564 37,000  Level FlightAware
Wed 11:54:56 AM 51.3264 1.0265 102° East 488 562 37,000  Level FlightAware
Wed 11:54:59 AM 51.3252 1.0351 102° East 488 562 37,000  Level FlightAware
Wed 11:55:07 AM 51.3214 1.0635 102° East 489 563 37,000  Level FlightAware
Wed 11:55:27 AM 51.3121 1.1328 102° East 489 563 37,000  Level FlightAware
Wed 11:55:34 AM 51.3090 1.1555 102° East 487 560 37,000  Level FlightAware (EGHH / BOH)
Wed 11:55:49 AM 51.3015 1.2109 102° East 488 562 37,000  Level FlightAware (LSXS)
Wed 11:55:57 AM 51.2975 1.2408 102° East 490 564 37,000  Level FlightAware
Wed 11:55:58 AM 51.2972 1.2426 104° East 489 563 37,000  Level FlightAware (LSXS)
Wed 11:56:14 AM 51.2899 1.2982 102° East 491 565 37,000  Level FlightAware
Wed 11:56:39 AM 51.2801 1.3874 100° East 494 568 37,000  Level FlightAware (LSXS)
Wed 11:56:44 AM 51.2778 1.4086 100° East 494 568 37,000  Level FlightAware
Wed 11:57:09 AM 51.2686 1.4962 100° East 494 568 37,000  Level FlightAware
Wed 11:57:40 AM 51.2576 1.5958 100° East 495 570 37,000  Level FlightAware
Wed 11:58:14 AM 51.2423 1.7302 100° East 494 568 37,000  Level FlightAware (LSXS)
Wed 11:58:49 AM 51.2281 1.8546 100° East 466 536 37,000  Level FlightAware
Wed 11:58:53 AM 51.2265 1.8684 100° East 494 568 37,000  Level FlightAware
Wed 11:59:14 AM 51.2179 1.9428 100° East 493 567 37,000  Level FlightAware (LSXS)
Wed 11:59:53 AM 51.2020 2.0777 101° East 494 568 37,000  Level FlightAware
Wed 12:00:04 PM 51.1968 2.1211 101° East 492 566 37,000  Level FlightAware (EGHH / BOH)
Wed 12:00:35 PM 51.1839 2.2298 101° East 493 567 37,000  Level FlightAware
Wed 12:00:56 PM 51.1753 2.3012 101° East 492 566 37,000  Level FlightAware
Wed 12:01:31 PM 51.1597 2.4310 101° East 468 539 37,000  Level FlightAware
Wed 12:01:49 PM 51.1519 2.4946 101° East 490 564 37,000  Level FlightAware (LSXS)
Wed 12:02:01 PM 51.1468 2.5372 101° East 492 566 37,000  Level FlightAware
Wed 12:02:19 PM 51.1429 2.5697 101° East 491 565 37,000  Level FlightAware
Wed 12:02:36 PM 51.1319 2.6598 101° East 490 564 37,000  Level FlightAware
Wed 12:03:15 PM 51.1149 2.7982 101° East 490 564 37,000 -71 Level FlightAware
Wed 12:04:01 PM 51.0947 2.9615 101° East 468 539 36,900  Descending FlightAware
Wed 12:04:37 PM 51.0944 2.9609 101° East 486 559 37,000 83 Climbing FlightAware
Wed 12:05:13 PM 51.0624 3.2134 101° East 466 536 37,000  Level FlightAware
Wed 12:05:43 PM 51.0492 3.3176 101° East 466 536 37,000  Level FlightAware
Wed 12:06:00 PM 51.0485 3.3204 101° East 484 557 37,000  Level FlightAware
Wed 12:06:41 PM 51.0240 3.5070 101° East 483 556 37,000 -140 Level FlightAware
Wed 12:06:43 PM 51.0223 3.5254 101° East 464 534 36,900  Descending FlightAware
Wed 12:07:13 PM 51.0100 3.6200 101° East 482 555 37,000 81 Climbing FlightAware
Wed 12:07:57 PM 50.9890 3.7770 102° East 480 552 37,000 -71 Level FlightAware
Wed 12:08:37 PM 50.9698 3.9180 102° East 466 536 36,900  Descending FlightAware
Wed 12:09:02 PM 50.9590 3.9940 102° East 478 550 37,000  Climbing FlightAware
Wed 12:09:31 PM 50.9451 4.1026 102° East 464 534 36,900  Descending FlightAware
Wed 12:10:15 PM 50.9250 4.2430 102° East 475 547 37,000  Climbing FlightAware
Wed 12:10:19 PM 50.9223 4.2657 102° East 466 536 36,900  Descending FlightAware
Wed 12:10:48 PM 50.9188 4.2888 102° East 476 548 37,000 98 Climbing FlightAware
Wed 12:11:20 PM 50.8939 4.4711 102° East 474 545 37,000 -387 Level FlightAware
Wed 12:11:50 PM 50.8799 4.5702 103° East 477 549 36,600 -1,857 Descending FlightAware
Wed 12:12:44 PM 50.8534 4.7535 103° East 464 534 34,400 -2,435 Descending FlightAware
Wed 12:12:59 PM 50.8460 4.8030 103° East 484 557 33,800 -3,351 Descending FlightAware
Wed 12:14:01 PM 50.8150 5.0190 103° East 493 567 30,100 -3,250 Descending FlightAware
Wed 12:14:35 PM 50.7980 5.1400 102° East 484 557 28,600 -2,507 Descending FlightAware
Wed 12:15:08 PM 50.7840 5.2450 102° East 475 547 27,300 -2,400 Descending FlightAware
Wed 12:15:45 PM 50.7670 5.3690 102° East 463 533 25,800 -2,522 Descending FlightAware
Wed 12:16:17 PM 50.7510 5.4760 103° East 480 552 24,400 -2,727 Descending FlightAware
Wed 12:16:51 PM 50.7350 5.5960 102° East 478 550 22,800 -2,647 Descending FlightAware
Wed 12:17:25 PM 50.7200 5.7060 102° East 484 557 21,400 -2,491 Descending FlightAware
Wed 12:17:44 PM 50.7150 5.7670 97° East 479 551 20,600 -2,776 Descending FlightAware
Wed 12:18:32 PM 50.7400 5.9400 77° East 465 535 18,300 -2,791 Descending FlightAware
Wed 12:19:10 PM 50.7620 6.0600 74° East 454 522 16,600 -434 Descending FlightAware
Wed 12:19:55 PM 50.7490 5.9860 255° West 463 533 17,700 -809 Climbing FlightAware
Wed 12:20:39 PM 50.7780 6.1490 74° East 459 528 15,400 -2,351 Descending FlightAware
Wed 12:21:09 PM 50.7860 6.1890 72° East 443 510 14,800 -7,135 Descending FlightAware
Wed 12:21:16 PM 50.8337 6.4341 73° East 425 489 11,000 -8,667 Descending FlightAware (EDKL)
Wed 12:21:45 PM 50.8469 6.5043 73° East 418 481 9,600 -2,700 Descending FlightAware (EDKL)
Wed 12:22:36 PM 50.9060 6.6433 56° Northeast 397 457 7,400 -2,657 Descending FlightAware (EDKL)
Wed 12:22:55 PM 50.9268 6.6879 53° Northeast 395 455 6,500 -2,923 Descending FlightAware (EDKL)
Wed 12:23:15 PM 50.9495 6.7349 53° Northeast 383 441 5,500 -2,634 Descending FlightAware (EDKL)
Wed 12:23:36 PM 50.9728 6.7821 52° Northeast 372 428 4,700 -2,634 Descending FlightAware (EDKL)
Wed 12:23:56 PM 50.9921 6.8227 53° Northeast 363 418 3,700 -2,897 Descending FlightAware (EDKL)
Wed 12:24:05 PM 51.0001 6.8477 63° Northeast 359 413 3,300 -2,526 Descending FlightAware (EDKL)
Wed 12:24:15 PM 51.0042 6.8725 75° East 354 407 2,900 -2,000 Descending FlightAware (EDKL)
Wed 12:24:26 PM 51.0048 6.8966 88° East 339 390 2,600 -900 Descending FlightAware (EDKL)
Wed 12:24:35 PM 51.0016 6.9236 101° East 322 371 2,600  Level FlightAware (EDKL)
Wed 12:24:56 PM 50.9916 6.9571 115° Southeast 294 338 2,600 -450 Level FlightAware (EDKL)
Wed 12:25:15 PM 50.9725 6.9898 133° Southeast 270 311 2,300 -1,241 Descending FlightAware (EDKL)
Wed 12:25:25 PM 50.9660 7.0013 132° Southeast 259 298 2,000 -1,500 Descending FlightAware (EDKL)
Wed 12:25:35 PM 50.9577 7.0179 128° Southeast 240 276 1,800 -1,161 Descending FlightAware (EDKL)
Wed 12:25:56 PM 50.9399 7.0424 139° Southeast 214 246 1,400 -1,024 Descending FlightAware (EDKL)
Wed 12:26:16 PM 50.9258 7.0632 137° Southeast 191 220 1,100 -923 Descending FlightAware (EDKL)
Wed 12:26:35 PM 50.9201 7.0715 138° Southeast 173 199 800 -952 Descending FlightAware (EDKL)
Wed 12:27:19 PM 50.8910 7.1140 137° Southeast 148 170 100 -955 Descending FlightAware
Wed 12:27:46 PM 50.8790 7.1310 138° Southeast 147 169 -222 Descending FlightAware

Login

Don't have an account? Register now (free) for customized features, flight alerts, and more!